sensor_id;sensor_type;location;lat;lon;timestamp;P1;durP1;ratioP1;P2;durP2;ratioP2
55497;SDS011;41357;52.806;18.268;2022-09-09T00:00:24;9.77;;;6.15;;
55497;SDS011;41357;52.806;18.268;2022-09-09T00:03:05;10.52;;;6.15;;
55497;SDS011;41357;52.806;18.268;2022-09-09T00:06:19;10.20;;;5.60;;
55497;SDS011;41357;52.806;18.268;2022-09-09T00:08:28;9.77;;;5.22;;
55497;SDS011;41357;52.806;18.268;2022-09-09T00:10:59;13.27;;;6.70;;
55497;SDS011;41357;52.806;18.268;2022-09-09T00:13:34;12.85;;;5.55;;
55497;SDS011;41357;52.806;18.268;2022-09-09T00:16:17;12.40;;;6.47;;
55497;SDS011;41357;52.806;18.268;2022-09-09T00:21:36;12.35;;;5.88;;
55497;SDS011;41357;52.806;18.268;2022-09-09T00:26:51;10.15;;;5.68;;
55497;SDS011;41357;52.806;18.268;2022-09-09T00:29:22;13.13;;;6.22;;
55497;SDS011;41357;52.806;18.268;2022-09-09T00:31:50;15.00;;;7.15;;
55497;SDS011;41357;52.806;18.268;2022-09-09T00:34:21;11.57;;;6.25;;
55497;SDS011;41357;52.806;18.268;2022-09-09T00:36:49;10.27;;;6.15;;
55497;SDS011;41357;52.806;18.268;2022-09-09T00:42:44;12.77;;;6.78;;
55497;SDS011;41357;52.806;18.268;2022-09-09T00:44:52;9.88;;;6.13;;
55497;SDS011;41357;52.806;18.268;2022-09-09T00:50:02;9.88;;;6.30;;
55497;SDS011;41357;52.806;18.268;2022-09-09T00:52:36;10.40;;;5.78;;
55497;SDS011;41357;52.806;18.268;2022-09-09T00:57:33;9.50;;;7.00;;
55497;SDS011;41357;52.806;18.268;2022-09-09T01:08:01;14.18;;;6.78;;
55497;SDS011;41357;52.806;18.268;2022-09-09T01:13:35;10.48;;;6.78;;
55497;SDS011;41357;52.806;18.268;2022-09-09T01:16:01;13.02;;;6.78;;
55497;SDS011;41357;52.806;18.268;2022-09-09T01:18:32;10.38;;;6.18;;
55497;SDS011;41357;52.806;18.268;2022-09-09T01:21:08;11.50;;;6.03;;
55497;SDS011;41357;52.806;18.268;2022-09-09T01:26:22;10.95;;;6.25;;
55497;SDS011;41357;52.806;18.268;2022-09-09T01:28:50;8.80;;;6.22;;
55497;SDS011;41357;52.806;18.268;2022-09-09T01:34:07;11.05;;;6.50;;
55497;SDS011;41357;52.806;18.268;2022-09-09T01:39:00;12.48;;;6.35;;
55497;SDS011;41357;52.806;18.268;2022-09-09T01:41:27;9.32;;;5.90;;
55497;SDS011;41357;52.806;18.268;2022-09-09T01:43:53;10.68;;;6.70;;
55497;SDS011;41357;52.806;18.268;2022-09-09T01:46:21;13.57;;;7.28;;
55497;SDS011;41357;52.806;18.268;2022-09-09T01:48:48;10.95;;;6.55;;
55497;SDS011;41357;52.806;18.268;2022-09-09T01:51:14;10.57;;;6.72;;
55497;SDS011;41357;52.806;18.268;2022-09-09T01:53:41;12.95;;;7.32;;
55497;SDS011;41357;52.806;18.268;2022-09-09T01:56:11;13.23;;;6.80;;
55497;SDS011;41357;52.806;18.268;2022-09-09T02:04:04;11.77;;;6.53;;
55497;SDS011;41357;52.806;18.268;2022-09-09T02:06:34;9.93;;;6.45;;
55497;SDS011;41357;52.806;18.268;2022-09-09T02:09:03;11.40;;;7.07;;
55497;SDS011;41357;52.806;18.268;2022-09-09T02:11:30;10.02;;;6.75;;
55497;SDS011;41357;52.806;18.268;2022-09-09T02:13:59;13.18;;;6.65;;
55497;SDS011;41357;52.806;18.268;2022-09-09T02:16:35;16.33;;;6.55;;
55497;SDS011;41357;52.806;18.268;2022-09-09T02:19:06;16.83;;;6.95;;
55497;SDS011;41357;52.806;18.268;2022-09-09T02:21:35;12.27;;;6.55;;
55497;SDS011;41357;52.806;18.268;2022-09-09T02:24:02;11.43;;;7.03;;
55497;SDS011;41357;52.806;18.268;2022-09-09T02:26:30;13.93;;;6.85;;
55497;SDS011;41357;52.806;18.268;2022-09-09T02:28:57;10.57;;;7.45;;
55497;SDS011;41357;52.806;18.268;2022-09-09T02:31:24;13.45;;;7.55;;
55497;SDS011;41357;52.806;18.268;2022-09-09T02:33:52;11.32;;;7.07;;
55497;SDS011;41357;52.806;18.268;2022-09-09T02:36:19;11.77;;;6.72;;
55497;SDS011;41357;52.806;18.268;2022-09-09T02:38:47;12.05;;;7.95;;
55497;SDS011;41357;52.806;18.268;2022-09-09T02:41:19;14.05;;;6.95;;
55497;SDS011;41357;52.806;18.268;2022-09-09T02:48:42;12.23;;;7.07;;
55497;SDS011;41357;52.806;18.268;2022-09-09T02:54:38;10.95;;;7.15;;
55497;SDS011;41357;52.806;18.268;2022-09-09T02:56:47;11.32;;;7.57;;
55497;SDS011;41357;52.806;18.268;2022-09-09T02:59:15;14.98;;;8.00;;
55497;SDS011;41357;52.806;18.268;2022-09-09T03:01:43;13.05;;;7.38;;
55497;SDS011;41357;52.806;18.268;2022-09-09T03:04:10;14.75;;;8.73;;
55497;SDS011;41357;52.806;18.268;2022-09-09T03:06:36;14.40;;;8.90;;
55497;SDS011;41357;52.806;18.268;2022-09-09T03:09:02;11.40;;;8.35;;
55497;SDS011;41357;52.806;18.268;2022-09-09T03:11:29;13.25;;;8.20;;
55497;SDS011;41357;52.806;18.268;2022-09-09T03:13:55;12.35;;;7.85;;
55497;SDS011;41357;52.806;18.268;2022-09-09T03:16:24;13.52;;;8.05;;
55497;SDS011;41357;52.806;18.268;2022-09-09T03:18:50;15.48;;;8.65;;
55497;SDS011;41357;52.806;18.268;2022-09-09T03:21:17;12.48;;;8.05;;
55497;SDS011;41357;52.806;18.268;2022-09-09T03:23:43;12.23;;;8.50;;
55497;SDS011;41357;52.806;18.268;2022-09-09T03:26:10;12.95;;;8.02;;
55497;SDS011;41357;52.806;18.268;2022-09-09T03:28:36;12.85;;;8.10;;
55497;SDS011;41357;52.806;18.268;2022-09-09T03:31:04;15.75;;;9.00;;
55497;SDS011;41357;52.806;18.268;2022-09-09T03:33:30;11.70;;;8.35;;
55497;SDS011;41357;52.806;18.268;2022-09-09T03:35:56;14.18;;;9.00;;
55497;SDS011;41357;52.806;18.268;2022-09-09T03:38:24;12.32;;;7.88;;
55497;SDS011;41357;52.806;18.268;2022-09-09T03:40:54;12.93;;;8.93;;
55497;SDS011;41357;52.806;18.268;2022-09-09T03:43:22;15.40;;;8.57;;
55497;SDS011;41357;52.806;18.268;2022-09-09T03:45:48;12.90;;;8.55;;
55497;SDS011;41357;52.806;18.268;2022-09-09T03:48:15;16.33;;;9.38;;
55497;SDS011;41357;52.806;18.268;2022-09-09T03:50:48;15.88;;;8.65;;
55497;SDS011;41357;52.806;18.268;2022-09-09T03:53:15;12.73;;;8.55;;
55497;SDS011;41357;52.806;18.268;2022-09-09T03:55:45;11.07;;;8.10;;
55497;SDS011;41357;52.806;18.268;2022-09-09T03:58:13;11.70;;;8.95;;
55497;SDS011;41357;52.806;18.268;2022-09-09T04:00:39;19.90;;;9.50;;
55497;SDS011;41357;52.806;18.268;2022-09-09T04:03:08;14.40;;;8.85;;
55497;SDS011;41357;52.806;18.268;2022-09-09T04:05:34;11.93;;;8.50;;
55497;SDS011;41357;52.806;18.268;2022-09-09T04:08:04;12.63;;;8.32;;
55497;SDS011;41357;52.806;18.268;2022-09-09T04:10:30;16.63;;;9.13;;
55497;SDS011;41357;52.806;18.268;2022-09-09T04:12:56;13.65;;;9.00;;
55497;SDS011;41357;52.806;18.268;2022-09-09T04:15:23;13.60;;;9.30;;
55497;SDS011;41357;52.806;18.268;2022-09-09T04:17:49;12.52;;;8.68;;
55497;SDS011;41357;52.806;18.268;2022-09-09T04:20:16;16.75;;;9.73;;
55497;SDS011;41357;52.806;18.268;2022-09-09T04:22:42;14.13;;;8.98;;
55497;SDS011;41357;52.806;18.268;2022-09-09T04:25:08;14.95;;;9.25;;
55497;SDS011;41357;52.806;18.268;2022-09-09T04:27:34;15.70;;;9.75;;
55497;SDS011;41357;52.806;18.268;2022-09-09T04:30:01;18.90;;;10.52;;
55497;SDS011;41357;52.806;18.268;2022-09-09T04:32:27;14.63;;;10.27;;
55497;SDS011;41357;52.806;18.268;2022-09-09T04:34:53;15.82;;;10.38;;
55497;SDS011;41357;52.806;18.268;2022-09-09T04:37:19;16.45;;;10.85;;
55497;SDS011;41357;52.806;18.268;2022-09-09T04:39:45;18.75;;;11.30;;
55497;SDS011;41357;52.806;18.268;2022-09-09T04:42:11;19.17;;;10.95;;
55497;SDS011;41357;52.806;18.268;2022-09-09T04:44:38;20.80;;;11.27;;
55497;SDS011;41357;52.806;18.268;2022-09-09T04:47:05;19.85;;;12.20;;
55497;SDS011;41357;52.806;18.268;2022-09-09T04:49:31;19.13;;;11.60;;
55497;SDS011;41357;52.806;18.268;2022-09-09T04:51:58;20.35;;;11.43;;
55497;SDS011;41357;52.806;18.268;2022-09-09T04:54:24;16.88;;;10.73;;
55497;SDS011;41357;52.806;18.268;2022-09-09T04:56:50;17.23;;;11.40;;
55497;SDS011;41357;52.806;18.268;2022-09-09T04:59:16;22.40;;;11.48;;
55497;SDS011;41357;52.806;18.268;2022-09-09T05:01:42;19.55;;;11.73;;
55497;SDS011;41357;52.806;18.268;2022-09-09T05:04:09;20.50;;;11.40;;
55497;SDS011;41357;52.806;18.268;2022-09-09T05:06:35;17.70;;;11.38;;
55497;SDS011;41357;52.806;18.268;2022-09-09T05:09:02;19.63;;;12.30;;
55497;SDS011;41357;52.806;18.268;2022-09-09T05:11:29;21.35;;;12.43;;
55497;SDS011;41357;52.806;18.268;2022-09-09T05:13:55;18.25;;;12.27;;
55497;SDS011;41357;52.806;18.268;2022-09-09T05:16:22;18.48;;;11.38;;
55497;SDS011;41357;52.806;18.268;2022-09-09T05:18:48;22.02;;;11.60;;
55497;SDS011;41357;52.806;18.268;2022-09-09T05:21:16;21.58;;;12.82;;
55497;SDS011;41357;52.806;18.268;2022-09-09T05:23:42;24.80;;;13.02;;
55497;SDS011;41357;52.806;18.268;2022-09-09T05:26:11;22.45;;;13.98;;
55497;SDS011;41357;52.806;18.268;2022-09-09T05:28:38;21.35;;;12.55;;
55497;SDS011;41357;52.806;18.268;2022-09-09T05:31:05;28.42;;;14.30;;
55497;SDS011;41357;52.806;18.268;2022-09-09T05:33:36;21.58;;;13.48;;
55497;SDS011;41357;52.806;18.268;2022-09-09T05:36:09;24.60;;;13.10;;
55497;SDS011;41357;52.806;18.268;2022-09-09T05:38:37;23.50;;;13.63;;
55497;SDS011;41357;52.806;18.268;2022-09-09T05:41:04;26.60;;;12.95;;
55497;SDS011;41357;52.806;18.268;2022-09-09T05:43:30;24.35;;;13.50;;
55497;SDS011;41357;52.806;18.268;2022-09-09T05:48:43;27.92;;;14.50;;
55497;SDS011;41357;52.806;18.268;2022-09-09T05:51:12;26.63;;;13.25;;
55497;SDS011;41357;52.806;18.268;2022-09-09T05:53:40;25.88;;;13.80;;
55497;SDS011;41357;52.806;18.268;2022-09-09T05:56:11;26.77;;;13.70;;
55497;SDS011;41357;52.806;18.268;2022-09-09T05:58:37;24.95;;;14.73;;
55497;SDS011;41357;52.806;18.268;2022-09-09T06:01:04;25.52;;;14.73;;
55497;SDS011;41357;52.806;18.268;2022-09-09T06:03:32;29.77;;;14.77;;
55497;SDS011;41357;52.806;18.268;2022-09-09T06:05:59;25.92;;;14.50;;
55497;SDS011;41357;52.806;18.268;2022-09-09T06:08:26;26.15;;;15.15;;
55497;SDS011;41357;52.806;18.268;2022-09-09T06:13:28;28.80;;;13.95;;
55497;SDS011;41357;52.806;18.268;2022-09-09T06:15:54;30.42;;;16.00;;
55497;SDS011;41357;52.806;18.268;2022-09-09T06:18:21;25.58;;;14.95;;
55497;SDS011;41357;52.806;18.268;2022-09-09T06:20:54;25.63;;;15.02;;
55497;SDS011;41357;52.806;18.268;2022-09-09T06:23:20;29.10;;;15.13;;
55497;SDS011;41357;52.806;18.268;2022-09-09T06:25:46;29.02;;;15.40;;
55497;SDS011;41357;52.806;18.268;2022-09-09T06:28:14;22.70;;;14.25;;
55497;SDS011;41357;52.806;18.268;2022-09-09T06:30:40;26.73;;;15.60;;
55497;SDS011;41357;52.806;18.268;2022-09-09T06:33:06;27.55;;;15.80;;
55497;SDS011;41357;52.806;18.268;2022-09-09T06:35:32;26.60;;;14.50;;
55497;SDS011;41357;52.806;18.268;2022-09-09T06:37:58;27.98;;;15.43;;
55497;SDS011;41357;52.806;18.268;2022-09-09T06:40:24;32.45;;;15.55;;
55497;SDS011;41357;52.806;18.268;2022-09-09T06:42:50;31.00;;;16.05;;
55497;SDS011;41357;52.806;18.268;2022-09-09T06:45:17;31.40;;;17.00;;
55497;SDS011;41357;52.806;18.268;2022-09-09T06:47:43;33.35;;;16.02;;
55497;SDS011;41357;52.806;18.268;2022-09-09T06:50:09;31.23;;;16.73;;
55497;SDS011;41357;52.806;18.268;2022-09-09T06:52:36;36.70;;;16.80;;
55497;SDS011;41357;52.806;18.268;2022-09-09T06:55:02;32.22;;;16.83;;
55497;SDS011;41357;52.806;18.268;2022-09-09T06:57:28;30.92;;;16.23;;
55497;SDS011;41357;52.806;18.268;2022-09-09T06:59:55;38.25;;;18.17;;
55497;SDS011;41357;52.806;18.268;2022-09-09T07:02:21;42.78;;;19.15;;
55497;SDS011;41357;52.806;18.268;2022-09-09T07:04:47;38.72;;;18.40;;
55497;SDS011;41357;52.806;18.268;2022-09-09T07:07:16;41.58;;;19.30;;
55497;SDS011;41357;52.806;18.268;2022-09-09T07:09:42;42.90;;;19.95;;
55497;SDS011;41357;52.806;18.268;2022-09-09T07:12:11;42.67;;;18.90;;
55497;SDS011;41357;52.806;18.268;2022-09-09T07:14:38;43.63;;;20.08;;
55497;SDS011;41357;52.806;18.268;2022-09-09T07:17:04;44.80;;;19.80;;
55497;SDS011;41357;52.806;18.268;2022-09-09T07:19:30;37.83;;;20.38;;
55497;SDS011;41357;52.806;18.268;2022-09-09T07:21:56;45.58;;;20.63;;
55497;SDS011;41357;52.806;18.268;2022-09-09T07:24:22;44.40;;;20.00;;
55497;SDS011;41357;52.806;18.268;2022-09-09T07:26:49;38.30;;;18.65;;
55497;SDS011;41357;52.806;18.268;2022-09-09T07:29:15;46.03;;;20.70;;
55497;SDS011;41357;52.806;18.268;2022-09-09T07:31:41;49.17;;;20.15;;
55497;SDS011;41357;52.806;18.268;2022-09-09T07:34:07;44.03;;;20.95;;
55497;SDS011;41357;52.806;18.268;2022-09-09T07:36:37;44.33;;;20.98;;
55497;SDS011;41357;52.806;18.268;2022-09-09T07:39:08;51.72;;;22.90;;
55497;SDS011;41357;52.806;18.268;2022-09-09T07:41:35;49.42;;;21.80;;
55497;SDS011;41357;52.806;18.268;2022-09-09T07:44:06;50.30;;;20.27;;
55497;SDS011;41357;52.806;18.268;2022-09-09T07:46:32;53.42;;;22.25;;
55497;SDS011;41357;52.806;18.268;2022-09-09T07:48:59;49.25;;;20.73;;
55497;SDS011;41357;52.806;18.268;2022-09-09T07:51:28;41.90;;;20.55;;
55497;SDS011;41357;52.806;18.268;2022-09-09T07:53:55;60.15;;;22.83;;
55497;SDS011;41357;52.806;18.268;2022-09-09T07:56:23;55.63;;;21.42;;
55497;SDS011;41357;52.806;18.268;2022-09-09T07:58:50;49.03;;;20.67;;
55497;SDS011;41357;52.806;18.268;2022-09-09T08:01:21;53.47;;;21.00;;
55497;SDS011;41357;52.806;18.268;2022-09-09T08:06:13;59.55;;;19.83;;
55497;SDS011;41357;52.806;18.268;2022-09-09T08:08:40;61.50;;;22.83;;
55497;SDS011;41357;52.806;18.268;2022-09-09T08:11:09;51.63;;;20.67;;
55497;SDS011;41357;52.806;18.268;2022-09-09T08:13:36;49.63;;;22.38;;
55497;SDS011;41357;52.806;18.268;2022-09-09T08:16:07;50.58;;;20.85;;
55497;SDS011;41357;52.806;18.268;2022-09-09T08:18:33;56.10;;;22.80;;
55497;SDS011;41357;52.806;18.268;2022-09-09T08:21:12;54.08;;;21.23;;
55497;SDS011;41357;52.806;18.268;2022-09-09T08:23:39;53.20;;;21.20;;
55497;SDS011;41357;52.806;18.268;2022-09-09T08:26:07;53.92;;;21.65;;
55497;SDS011;41357;52.806;18.268;2022-09-09T08:28:34;51.22;;;20.45;;
55497;SDS011;41357;52.806;18.268;2022-09-09T08:31:10;48.67;;;22.17;;
55497;SDS011;41357;52.806;18.268;2022-09-09T08:33:36;51.58;;;22.20;;
55497;SDS011;41357;52.806;18.268;2022-09-09T08:36:03;56.50;;;22.98;;
55497;SDS011;41357;52.806;18.268;2022-09-09T08:38:30;71.53;;;23.05;;
55497;SDS011;41357;52.806;18.268;2022-09-09T08:41:04;64.65;;;23.58;;
55497;SDS011;41357;52.806;18.268;2022-09-09T08:43:33;71.15;;;25.52;;
55497;SDS011;41357;52.806;18.268;2022-09-09T08:46:03;63.90;;;23.38;;
55497;SDS011;41357;52.806;18.268;2022-09-09T08:51:17;53.78;;;24.00;;
55497;SDS011;41357;52.806;18.268;2022-09-09T08:53:45;56.78;;;23.65;;
55497;SDS011;41357;52.806;18.268;2022-09-09T08:56:13;57.90;;;24.73;;
55497;SDS011;41357;52.806;18.268;2022-09-09T08:58:47;70.90;;;25.75;;
55497;SDS011;41357;52.806;18.268;2022-09-09T09:11:40;62.60;;;24.48;;
55497;SDS011;41357;52.806;18.268;2022-09-09T09:16:34;68.07;;;27.92;;
55497;SDS011;41357;52.806;18.268;2022-09-09T09:19:01;58.78;;;25.85;;
55497;SDS011;41357;52.806;18.268;2022-09-09T09:21:34;57.97;;;26.25;;
55497;SDS011;41357;52.806;18.268;2022-09-09T09:24:02;72.75;;;27.33;;
55497;SDS011;41357;52.806;18.268;2022-09-09T09:26:34;76.65;;;29.08;;
55497;SDS011;41357;52.806;18.268;2022-09-09T09:29:03;78.72;;;29.65;;
55497;SDS011;41357;52.806;18.268;2022-09-09T09:31:34;78.03;;;28.52;;
55497;SDS011;41357;52.806;18.268;2022-09-09T09:34:00;75.15;;;31.00;;
55497;SDS011;41357;52.806;18.268;2022-09-09T09:36:34;88.30;;;32.05;;
55497;SDS011;41357;52.806;18.268;2022-09-09T09:39:02;70.85;;;29.13;;
55497;SDS011;41357;52.806;18.268;2022-09-09T09:41:40;78.15;;;29.85;;
55497;SDS011;41357;52.806;18.268;2022-09-09T09:46:51;76.72;;;30.95;;
55497;SDS011;41357;52.806;18.268;2022-09-09T09:49:18;76.10;;;30.15;;
55497;SDS011;41357;52.806;18.268;2022-09-09T09:51:44;72.60;;;30.67;;
55497;SDS011;41357;52.806;18.268;2022-09-09T09:56:56;66.30;;;28.65;;
55497;SDS011;41357;52.806;18.268;2022-09-09T10:02:36;70.88;;;30.33;;
55497;SDS011;41357;52.806;18.268;2022-09-09T10:07:37;57.00;;;26.33;;
55497;SDS011;41357;52.806;18.268;2022-09-09T10:10:04;57.83;;;28.02;;
55497;SDS011;41357;52.806;18.268;2022-09-09T10:23:18;60.38;;;24.95;;
55497;SDS011;41357;52.806;18.268;2022-09-09T10:31:24;50.20;;;25.75;;
55497;SDS011;41357;52.806;18.268;2022-09-09T10:34:02;48.70;;;23.80;;
55497;SDS011;41357;52.806;18.268;2022-09-09T10:36:32;53.00;;;23.30;;
55497;SDS011;41357;52.806;18.268;2022-09-09T10:44:15;44.95;;;23.38;;
55497;SDS011;41357;52.806;18.268;2022-09-09T10:54:53;41.50;;;20.70;;
55497;SDS011;41357;52.806;18.268;2022-09-09T11:02:40;37.45;;;21.15;;
55497;SDS011;41357;52.806;18.268;2022-09-09T11:05:14;40.85;;;20.58;;
55497;SDS011;41357;52.806;18.268;2022-09-09T11:07:42;39.45;;;18.80;;
55497;SDS011;41357;52.806;18.268;2022-09-09T11:10:18;33.00;;;18.17;;
55497;SDS011;41357;52.806;18.268;2022-09-09T11:12:49;39.22;;;19.95;;
55497;SDS011;41357;52.806;18.268;2022-09-09T11:15:19;32.65;;;17.83;;
55497;SDS011;41357;52.806;18.268;2022-09-09T11:17:50;34.03;;;18.10;;
55497;SDS011;41357;52.806;18.268;2022-09-09T11:20:17;36.78;;;18.83;;
55497;SDS011;41357;52.806;18.268;2022-09-09T11:25:20;31.90;;;17.05;;
55497;SDS011;41357;52.806;18.268;2022-09-09T11:30:23;32.85;;;16.60;;
55497;SDS011;41357;52.806;18.268;2022-09-09T11:38:04;28.52;;;16.70;;
55497;SDS011;41357;52.806;18.268;2022-09-09T11:40:32;29.73;;;17.15;;
55497;SDS011;41357;52.806;18.268;2022-09-09T11:45:37;30.88;;;17.92;;
55497;SDS011;41357;52.806;18.268;2022-09-09T11:48:03;32.83;;;17.63;;
55497;SDS011;41357;52.806;18.268;2022-09-09T11:50:36;29.67;;;17.63;;
55497;SDS011;41357;52.806;18.268;2022-09-09T11:53:16;37.83;;;18.95;;
55497;SDS011;41357;52.806;18.268;2022-09-09T11:55:46;33.42;;;18.63;;
55497;SDS011;41357;52.806;18.268;2022-09-09T12:00:39;34.72;;;18.60;;
55497;SDS011;41357;52.806;18.268;2022-09-09T12:03:52;34.35;;;18.52;;
55497;SDS011;41357;52.806;18.268;2022-09-09T12:05:52;39.35;;;17.90;;
55497;SDS011;41357;52.806;18.268;2022-09-09T12:08:21;33.92;;;19.15;;
55497;SDS011;41357;52.806;18.268;2022-09-09T12:10:54;32.10;;;18.58;;
55497;SDS011;41357;52.806;18.268;2022-09-09T12:13:21;37.78;;;20.35;;
55497;SDS011;41357;52.806;18.268;2022-09-09T12:15:52;36.55;;;19.65;;
55497;SDS011;41357;52.806;18.268;2022-09-09T12:18:25;39.30;;;19.58;;
55497;SDS011;41357;52.806;18.268;2022-09-09T12:21:01;36.85;;;19.70;;
55497;SDS011;41357;52.806;18.268;2022-09-09T12:23:33;41.97;;;20.25;;
55497;SDS011;41357;52.806;18.268;2022-09-09T12:26:18;39.65;;;20.55;;
55497;SDS011;41357;52.806;18.268;2022-09-09T12:33:43;38.80;;;21.92;;
55497;SDS011;41357;52.806;18.268;2022-09-09T12:36:15;42.22;;;21.15;;
55497;SDS011;41357;52.806;18.268;2022-09-09T12:38:43;38.58;;;19.95;;
55497;SDS011;41357;52.806;18.268;2022-09-09T12:41:22;36.33;;;19.00;;
55497;SDS011;41357;52.806;18.268;2022-09-09T12:43:49;40.03;;;20.10;;
55497;SDS011;41357;52.806;18.268;2022-09-09T12:49:01;38.33;;;19.80;;
55497;SDS011;41357;52.806;18.268;2022-09-09T12:51:28;34.05;;;20.05;;
55497;SDS011;41357;52.806;18.268;2022-09-09T12:53:56;37.00;;;20.17;;
55497;SDS011;41357;52.806;18.268;2022-09-09T12:56:23;37.45;;;20.45;;
55497;SDS011;41357;52.806;18.268;2022-09-09T12:58:52;34.35;;;19.77;;
55497;SDS011;41357;52.806;18.268;2022-09-09T13:01:23;49.38;;;22.85;;
55497;SDS011;41357;52.806;18.268;2022-09-09T13:06:22;44.17;;;20.85;;
55497;SDS011;41357;52.806;18.268;2022-09-09T13:08:52;29.23;;;16.17;;
55497;SDS011;41357;52.806;18.268;2022-09-09T13:11:23;32.70;;;16.13;;
55497;SDS011;41357;52.806;18.268;2022-09-09T13:13:52;29.42;;;16.52;;
55497;SDS011;41357;52.806;18.268;2022-09-09T13:16:23;33.70;;;17.50;;
55497;SDS011;41357;52.806;18.268;2022-09-09T13:18:51;36.72;;;18.13;;
55497;SDS011;41357;52.806;18.268;2022-09-09T13:21:18;34.05;;;17.75;;
55497;SDS011;41357;52.806;18.268;2022-09-09T13:23:48;32.38;;;16.80;;
55497;SDS011;41357;52.806;18.268;2022-09-09T13:26:27;33.85;;;16.48;;
55497;SDS011;41357;52.806;18.268;2022-09-09T13:28:54;32.63;;;15.63;;
55497;SDS011;41357;52.806;18.268;2022-09-09T13:31:22;29.55;;;15.35;;
55497;SDS011;41357;52.806;18.268;2022-09-09T13:33:49;26.60;;;14.95;;
55497;SDS011;41357;52.806;18.268;2022-09-09T13:36:15;28.65;;;14.93;;
55497;SDS011;41357;52.806;18.268;2022-09-09T13:41:23;31.02;;;13.88;;
55497;SDS011;41357;52.806;18.268;2022-09-09T13:43:50;26.08;;;13.63;;
55497;SDS011;41357;52.806;18.268;2022-09-09T13:48:54;19.77;;;12.30;;
55497;SDS011;41357;52.806;18.268;2022-09-09T13:51:22;22.42;;;13.05;;
55497;SDS011;41357;52.806;18.268;2022-09-09T13:53:52;27.67;;;12.98;;
55497;SDS011;41357;52.806;18.268;2022-09-09T13:56:18;23.52;;;12.20;;
55497;SDS011;41357;52.806;18.268;2022-09-09T13:58:44;18.05;;;11.68;;
55497;SDS011;41357;52.806;18.268;2022-09-09T14:01:10;22.23;;;11.98;;
55497;SDS011;41357;52.806;18.268;2022-09-09T14:03:36;19.05;;;10.68;;
55497;SDS011;41357;52.806;18.268;2022-09-09T14:06:02;17.60;;;11.23;;
55497;SDS011;41357;52.806;18.268;2022-09-09T14:08:28;17.48;;;10.15;;
55497;SDS011;41357;52.806;18.268;2022-09-09T14:11:02;22.25;;;11.75;;
55497;SDS011;41357;52.806;18.268;2022-09-09T14:13:28;17.27;;;10.90;;
55497;SDS011;41357;52.806;18.268;2022-09-09T14:15:54;20.35;;;10.63;;
55497;SDS011;41357;52.806;18.268;2022-09-09T14:18:21;19.70;;;12.05;;
55497;SDS011;41357;52.806;18.268;2022-09-09T14:20:48;18.55;;;10.30;;
55497;SDS011;41357;52.806;18.268;2022-09-09T14:23:15;19.45;;;10.32;;
55497;SDS011;41357;52.806;18.268;2022-09-09T14:25:42;17.35;;;10.20;;
55497;SDS011;41357;52.806;18.268;2022-09-09T14:28:09;17.98;;;10.45;;
55497;SDS011;41357;52.806;18.268;2022-09-09T14:30:37;17.75;;;10.23;;
55497;SDS011;41357;52.806;18.268;2022-09-09T14:33:04;18.05;;;10.25;;
55497;SDS011;41357;52.806;18.268;2022-09-09T14:35:30;17.83;;;11.45;;
55497;SDS011;41357;52.806;18.268;2022-09-09T14:37:56;21.83;;;11.80;;
55497;SDS011;41357;52.806;18.268;2022-09-09T14:40:22;16.90;;;10.20;;
55497;SDS011;41357;52.806;18.268;2022-09-09T14:42:48;17.40;;;10.82;;
55497;SDS011;41357;52.806;18.268;2022-09-09T14:45:14;19.80;;;11.65;;
55497;SDS011;41357;52.806;18.268;2022-09-09T14:47:40;18.55;;;11.30;;
55497;SDS011;41357;52.806;18.268;2022-09-09T14:50:07;16.08;;;10.07;;
55497;SDS011;41357;52.806;18.268;2022-09-09T14:52:33;16.70;;;10.93;;
55497;SDS011;41357;52.806;18.268;2022-09-09T14:54:59;15.48;;;9.98;;
55497;SDS011;41357;52.806;18.268;2022-09-09T14:57:25;17.90;;;10.25;;
55497;SDS011;41357;52.806;18.268;2022-09-09T14:59:51;15.18;;;10.02;;
55497;SDS011;41357;52.806;18.268;2022-09-09T15:02:18;19.40;;;12.43;;
55497;SDS011;41357;52.806;18.268;2022-09-09T15:04:44;15.07;;;10.57;;
55497;SDS011;41357;52.806;18.268;2022-09-09T15:07:11;16.10;;;11.77;;
55497;SDS011;41357;52.806;18.268;2022-09-09T15:09:37;16.92;;;12.13;;
55497;SDS011;41357;52.806;18.268;2022-09-09T15:12:03;17.45;;;11.43;;
55497;SDS011;41357;52.806;18.268;2022-09-09T15:14:29;18.33;;;11.30;;
55497;SDS011;41357;52.806;18.268;2022-09-09T15:16:55;24.05;;;11.65;;
55497;SDS011;41357;52.806;18.268;2022-09-09T15:19:22;20.20;;;12.52;;
55497;SDS011;41357;52.806;18.268;2022-09-09T15:21:48;18.88;;;12.73;;
55497;SDS011;41357;52.806;18.268;2022-09-09T15:24:14;20.42;;;12.77;;
55497;SDS011;41357;52.806;18.268;2022-09-09T15:26:41;22.58;;;14.38;;
55497;SDS011;41357;52.806;18.268;2022-09-09T15:29:07;19.50;;;13.57;;
55497;SDS011;41357;52.806;18.268;2022-09-09T15:31:33;23.67;;;14.48;;
55497;SDS011;41357;52.806;18.268;2022-09-09T15:34:00;20.63;;;14.35;;
55497;SDS011;41357;52.806;18.268;2022-09-09T15:36:31;23.08;;;14.48;;
55497;SDS011;41357;52.806;18.268;2022-09-09T15:38:58;23.85;;;14.50;;
55497;SDS011;41357;52.806;18.268;2022-09-09T15:41:24;20.08;;;13.10;;
55497;SDS011;41357;52.806;18.268;2022-09-09T15:43:51;22.17;;;13.88;;
55497;SDS011;41357;52.806;18.268;2022-09-09T15:48:54;22.92;;;15.70;;
55497;SDS011;41357;52.806;18.268;2022-09-09T15:51:21;26.05;;;15.68;;
55497;SDS011;41357;52.806;18.268;2022-09-09T15:53:48;27.25;;;16.90;;
55497;SDS011;41357;52.806;18.268;2022-09-09T15:56:14;25.33;;;16.05;;
55497;SDS011;41357;52.806;18.268;2022-09-09T15:58:40;24.92;;;15.95;;
55497;SDS011;41357;52.806;18.268;2022-09-09T16:01:09;23.48;;;15.75;;
55497;SDS011;41357;52.806;18.268;2022-09-09T16:03:38;22.10;;;15.48;;
55497;SDS011;41357;52.806;18.268;2022-09-09T16:06:05;25.35;;;15.13;;
55497;SDS011;41357;52.806;18.268;2022-09-09T16:08:35;26.45;;;16.60;;
55497;SDS011;41357;52.806;18.268;2022-09-09T16:11:08;31.77;;;17.75;;
55497;SDS011;41357;52.806;18.268;2022-09-09T16:13:38;30.10;;;18.25;;
55497;SDS011;41357;52.806;18.268;2022-09-09T16:16:05;27.05;;;17.92;;
55497;SDS011;41357;52.806;18.268;2022-09-09T16:18:35;29.95;;;16.55;;
55497;SDS011;41357;52.806;18.268;2022-09-09T16:21:01;30.48;;;17.52;;
55497;SDS011;41357;52.806;18.268;2022-09-09T16:23:28;26.25;;;16.90;;
55497;SDS011;41357;52.806;18.268;2022-09-09T16:25:54;28.90;;;17.38;;
55497;SDS011;41357;52.806;18.268;2022-09-09T16:28:20;26.10;;;15.98;;
55497;SDS011;41357;52.806;18.268;2022-09-09T16:30:48;28.83;;;17.02;;
55497;SDS011;41357;52.806;18.268;2022-09-09T16:33:14;25.23;;;16.77;;
55497;SDS011;41357;52.806;18.268;2022-09-09T16:35:41;23.38;;;15.57;;
55497;SDS011;41357;52.806;18.268;2022-09-09T16:38:07;25.58;;;15.18;;
55497;SDS011;41357;52.806;18.268;2022-09-09T16:40:34;23.55;;;15.38;;
55497;SDS011;41357;52.806;18.268;2022-09-09T16:43:01;25.25;;;16.10;;
55497;SDS011;41357;52.806;18.268;2022-09-09T16:45:27;25.08;;;16.70;;
55497;SDS011;41357;52.806;18.268;2022-09-09T16:47:54;25.45;;;14.70;;